sensor_id;sensor_type;location;lat;lon;timestamp;P1;durP1;ratioP1;P2;durP2;ratioP2
73938;SDS011;62291;47.554;8.504;2023-11-19T00:02:08;3.75;;;3.20;;
73938;SDS011;62291;47.554;8.504;2023-11-19T00:04:37;5.32;;;3.67;;
73938;SDS011;62291;47.554;8.504;2023-11-19T00:07:06;4.93;;;4.15;;
73938;SDS011;62291;47.554;8.504;2023-11-19T00:09:36;6.13;;;3.80;;
73938;SDS011;62291;47.554;8.504;2023-11-19T00:12:05;4.85;;;3.67;;
73938;SDS011;62291;47.554;8.504;2023-11-19T00:14:32;4.93;;;3.47;;
73938;SDS011;62291;47.554;8.504;2023-11-19T00:16:59;5.75;;;3.20;;
73938;SDS011;62291;47.554;8.504;2023-11-19T00:19:25;4.90;;;2.90;;
73938;SDS011;62291;47.554;8.504;2023-11-19T00:21:51;3.55;;;3.00;;
73938;SDS011;62291;47.554;8.504;2023-11-19T00:24:17;5.55;;;3.17;;
73938;SDS011;62291;47.554;8.504;2023-11-19T00:26:43;3.85;;;2.60;;
73938;SDS011;62291;47.554;8.504;2023-11-19T00:29:09;4.65;;;2.85;;
73938;SDS011;62291;47.554;8.504;2023-11-19T00:31:35;3.00;;;2.70;;
73938;SDS011;62291;47.554;8.504;2023-11-19T00:34:01;5.63;;;3.03;;
73938;SDS011;62291;47.554;8.504;2023-11-19T00:36:27;4.35;;;2.80;;
73938;SDS011;62291;47.554;8.504;2023-11-19T00:38:53;4.93;;;2.50;;
73938;SDS011;62291;47.554;8.504;2023-11-19T00:41:19;5.25;;;2.55;;
73938;SDS011;62291;47.554;8.504;2023-11-19T00:43:45;5.57;;;2.70;;
73938;SDS011;62291;47.554;8.504;2023-11-19T00:46:11;4.55;;;2.40;;
73938;SDS011;62291;47.554;8.504;2023-11-19T00:48:38;3.80;;;2.45;;
73938;SDS011;62291;47.554;8.504;2023-11-19T00:51:04;5.85;;;2.50;;
73938;SDS011;62291;47.554;8.504;2023-11-19T00:53:30;4.95;;;2.25;;
73938;SDS011;62291;47.554;8.504;2023-11-19T00:55:57;3.42;;;2.20;;
73938;SDS011;62291;47.554;8.504;2023-11-19T00:58:23;3.78;;;2.42;;
73938;SDS011;62291;47.554;8.504;2023-11-19T01:00:49;5.90;;;2.42;;
73938;SDS011;62291;47.554;8.504;2023-11-19T01:03:14;3.67;;;2.22;;
73938;SDS011;62291;47.554;8.504;2023-11-19T01:05:43;3.60;;;2.25;;
73938;SDS011;62291;47.554;8.504;2023-11-19T01:08:11;3.38;;;2.47;;
73938;SDS011;62291;47.554;8.504;2023-11-19T01:10:37;3.72;;;2.40;;
73938;SDS011;62291;47.554;8.504;2023-11-19T01:13:03;5.40;;;2.42;;
73938;SDS011;62291;47.554;8.504;2023-11-19T01:15:31;3.72;;;2.33;;
73938;SDS011;62291;47.554;8.504;2023-11-19T01:17:57;4.05;;;2.17;;
73938;SDS011;62291;47.554;8.504;2023-11-19T01:20:23;3.15;;;2.13;;
73938;SDS011;62291;47.554;8.504;2023-11-19T01:22:49;4.60;;;2.05;;
73938;SDS011;62291;47.554;8.504;2023-11-19T01:25:15;3.08;;;2.35;;
73938;SDS011;62291;47.554;8.504;2023-11-19T01:27:41;5.97;;;2.33;;
73938;SDS011;62291;47.554;8.504;2023-11-19T01:30:07;3.67;;;2.10;;
73938;SDS011;62291;47.554;8.504;2023-11-19T01:32:38;3.72;;;2.15;;
73938;SDS011;62291;47.554;8.504;2023-11-19T01:35:06;3.10;;;2.30;;
73938;SDS011;62291;47.554;8.504;2023-11-19T01:37:35;3.28;;;2.20;;
73938;SDS011;62291;47.554;8.504;2023-11-19T01:40:01;3.70;;;1.90;;
73938;SDS011;62291;47.554;8.504;2023-11-19T01:42:39;3.42;;;2.00;;
73938;SDS011;62291;47.554;8.504;2023-11-19T01:45:06;4.25;;;2.13;;
73938;SDS011;62291;47.554;8.504;2023-11-19T01:47:35;2.45;;;1.95;;
73938;SDS011;62291;47.554;8.504;2023-11-19T01:50:04;2.80;;;1.92;;
73938;SDS011;62291;47.554;8.504;2023-11-19T01:52:33;2.90;;;1.90;;
73938;SDS011;62291;47.554;8.504;2023-11-19T01:55:03;6.27;;;2.17;;
73938;SDS011;62291;47.554;8.504;2023-11-19T01:57:30;2.47;;;1.85;;
73938;SDS011;62291;47.554;8.504;2023-11-19T01:59:55;4.28;;;2.25;;
73938;SDS011;62291;47.554;8.504;2023-11-19T02:02:21;3.65;;;2.15;;
73938;SDS011;62291;47.554;8.504;2023-11-19T02:04:49;3.53;;;2.08;;
73938;SDS011;62291;47.554;8.504;2023-11-19T02:07:16;3.55;;;2.00;;
73938;SDS011;62291;47.554;8.504;2023-11-19T02:09:45;4.38;;;1.77;;
73938;SDS011;62291;47.554;8.504;2023-11-19T02:12:11;3.28;;;2.22;;
73938;SDS011;62291;47.554;8.504;2023-11-19T02:14:37;3.80;;;2.22;;
73938;SDS011;62291;47.554;8.504;2023-11-19T02:17:03;4.90;;;2.10;;
73938;SDS011;62291;47.554;8.504;2023-11-19T02:19:30;4.10;;;2.60;;
73938;SDS011;62291;47.554;8.504;2023-11-19T02:21:55;3.90;;;2.22;;
73938;SDS011;62291;47.554;8.504;2023-11-19T02:24:24;4.55;;;2.20;;
73938;SDS011;62291;47.554;8.504;2023-11-19T02:29:23;4.20;;;3.05;;
73938;SDS011;62291;47.554;8.504;2023-11-19T02:31:48;3.70;;;2.60;;
73938;SDS011;62291;47.554;8.504;2023-11-19T02:34:14;3.90;;;2.60;;
73938;SDS011;62291;47.554;8.504;2023-11-19T02:36:41;4.43;;;2.58;;
73938;SDS011;62291;47.554;8.504;2023-11-19T02:39:07;4.45;;;2.72;;
73938;SDS011;62291;47.554;8.504;2023-11-19T02:41:37;4.25;;;2.38;;
73938;SDS011;62291;47.554;8.504;2023-11-19T02:44:05;5.13;;;2.80;;
73938;SDS011;62291;47.554;8.504;2023-11-19T02:46:31;5.63;;;3.42;;
73938;SDS011;62291;47.554;8.504;2023-11-19T02:48:57;4.20;;;2.75;;
73938;SDS011;62291;47.554;8.504;2023-11-19T02:51:23;7.43;;;3.50;;
73938;SDS011;62291;47.554;8.504;2023-11-19T02:53:48;5.57;;;3.92;;
73938;SDS011;62291;47.554;8.504;2023-11-19T02:56:14;5.75;;;4.38;;
73938;SDS011;62291;47.554;8.504;2023-11-19T02:58:45;8.00;;;4.75;;
73938;SDS011;62291;47.554;8.504;2023-11-19T03:01:11;7.57;;;4.78;;
73938;SDS011;62291;47.554;8.504;2023-11-19T03:03:49;7.22;;;5.22;;
73938;SDS011;62291;47.554;8.504;2023-11-19T03:06:20;6.32;;;5.05;;
73938;SDS011;62291;47.554;8.504;2023-11-19T03:08:47;7.13;;;5.00;;
73938;SDS011;62291;47.554;8.504;2023-11-19T03:11:13;6.65;;;4.95;;
73938;SDS011;62291;47.554;8.504;2023-11-19T03:13:39;6.18;;;4.97;;
73938;SDS011;62291;47.554;8.504;2023-11-19T03:16:04;8.27;;;5.40;;
73938;SDS011;62291;47.554;8.504;2023-11-19T03:18:30;6.35;;;4.75;;
73938;SDS011;62291;47.554;8.504;2023-11-19T03:20:56;5.50;;;4.60;;
73938;SDS011;62291;47.554;8.504;2023-11-19T03:23:23;7.85;;;4.68;;
73938;SDS011;62291;47.554;8.504;2023-11-19T03:25:50;6.03;;;4.60;;
73938;SDS011;62291;47.554;8.504;2023-11-19T03:28:15;5.85;;;4.35;;
73938;SDS011;62291;47.554;8.504;2023-11-19T03:30:41;8.20;;;4.47;;
73938;SDS011;62291;47.554;8.504;2023-11-19T03:33:07;5.78;;;4.25;;
73938;SDS011;62291;47.554;8.504;2023-11-19T03:35:33;6.72;;;4.50;;
73938;SDS011;62291;47.554;8.504;2023-11-19T03:37:58;7.72;;;4.00;;
73938;SDS011;62291;47.554;8.504;2023-11-19T03:40:24;5.97;;;4.30;;
73938;SDS011;62291;47.554;8.504;2023-11-19T03:42:50;6.53;;;4.95;;
73938;SDS011;62291;47.554;8.504;2023-11-19T03:45:16;10.18;;;5.40;;
73938;SDS011;62291;47.554;8.504;2023-11-19T03:47:41;6.15;;;4.63;;
73938;SDS011;62291;47.554;8.504;2023-11-19T03:50:07;9.00;;;5.65;;
73938;SDS011;62291;47.554;8.504;2023-11-19T03:52:34;7.00;;;5.43;;
73938;SDS011;62291;47.554;8.504;2023-11-19T03:55:00;6.68;;;4.70;;
73938;SDS011;62291;47.554;8.504;2023-11-19T03:57:27;8.07;;;4.80;;
73938;SDS011;62291;47.554;8.504;2023-11-19T03:59:53;5.95;;;4.72;;
73938;SDS011;62291;47.554;8.504;2023-11-19T04:02:20;7.45;;;4.60;;
73938;SDS011;62291;47.554;8.504;2023-11-19T04:04:46;6.80;;;4.53;;
73938;SDS011;62291;47.554;8.504;2023-11-19T04:07:13;7.72;;;4.82;;
73938;SDS011;62291;47.554;8.504;2023-11-19T04:09:39;7.72;;;4.40;;
73938;SDS011;62291;47.554;8.504;2023-11-19T04:12:04;6.13;;;4.68;;
73938;SDS011;62291;47.554;8.504;2023-11-19T04:14:30;7.10;;;4.47;;
73938;SDS011;62291;47.554;8.504;2023-11-19T04:16:56;8.32;;;4.40;;
73938;SDS011;62291;47.554;8.504;2023-11-19T04:19:22;5.80;;;4.07;;
73938;SDS011;62291;47.554;8.504;2023-11-19T04:21:47;7.65;;;4.40;;
73938;SDS011;62291;47.554;8.504;2023-11-19T04:24:13;8.60;;;4.38;;
73938;SDS011;62291;47.554;8.504;2023-11-19T04:26:43;7.40;;;4.10;;
73938;SDS011;62291;47.554;8.504;2023-11-19T04:29:11;6.78;;;4.45;;
73938;SDS011;62291;47.554;8.504;2023-11-19T04:31:40;7.22;;;4.72;;
73938;SDS011;62291;47.554;8.504;2023-11-19T04:34:07;4.78;;;3.88;;
73938;SDS011;62291;47.554;8.504;2023-11-19T04:36:33;5.47;;;4.00;;
73938;SDS011;62291;47.554;8.504;2023-11-19T04:38:59;5.97;;;4.13;;
73938;SDS011;62291;47.554;8.504;2023-11-19T04:41:25;8.13;;;4.18;;
73938;SDS011;62291;47.554;8.504;2023-11-19T04:44:11;6.10;;;4.60;;
73938;SDS011;62291;47.554;8.504;2023-11-19T04:46:37;6.97;;;4.38;;
73938;SDS011;62291;47.554;8.504;2023-11-19T04:49:03;6.65;;;4.38;;
73938;SDS011;62291;47.554;8.504;2023-11-19T04:51:29;5.30;;;4.50;;
73938;SDS011;62291;47.554;8.504;2023-11-19T04:53:55;6.15;;;4.45;;
73938;SDS011;62291;47.554;8.504;2023-11-19T04:56:21;6.13;;;4.47;;
73938;SDS011;62291;47.554;8.504;2023-11-19T04:58:48;7.70;;;4.57;;
73938;SDS011;62291;47.554;8.504;2023-11-19T05:01:14;5.78;;;4.15;;
73938;SDS011;62291;47.554;8.504;2023-11-19T05:03:43;6.55;;;4.63;;
73938;SDS011;62291;47.554;8.504;2023-11-19T05:06:09;5.88;;;4.50;;
73938;SDS011;62291;47.554;8.504;2023-11-19T05:08:35;6.13;;;4.63;;
73938;SDS011;62291;47.554;8.504;2023-11-19T05:11:01;6.45;;;4.57;;
73938;SDS011;62291;47.554;8.504;2023-11-19T05:13:26;7.25;;;5.68;;
73938;SDS011;62291;47.554;8.504;2023-11-19T05:15:52;8.10;;;5.40;;
73938;SDS011;62291;47.554;8.504;2023-11-19T05:18:18;6.78;;;5.22;;
73938;SDS011;62291;47.554;8.504;2023-11-19T05:20:44;5.97;;;4.68;;
73938;SDS011;62291;47.554;8.504;2023-11-19T05:23:10;5.43;;;4.20;;
73938;SDS011;62291;47.554;8.504;2023-11-19T05:25:36;6.60;;;4.10;;
73938;SDS011;62291;47.554;8.504;2023-11-19T05:28:02;7.55;;;4.20;;
73938;SDS011;62291;47.554;8.504;2023-11-19T05:30:28;4.45;;;3.75;;
73938;SDS011;62291;47.554;8.504;2023-11-19T05:32:53;4.70;;;2.92;;
73938;SDS011;62291;47.554;8.504;2023-11-19T05:35:19;4.07;;;3.10;;
73938;SDS011;62291;47.554;8.504;2023-11-19T05:37:45;5.63;;;3.67;;
73938;SDS011;62291;47.554;8.504;2023-11-19T05:40:10;5.72;;;4.10;;
73938;SDS011;62291;47.554;8.504;2023-11-19T05:45:10;8.27;;;4.95;;
73938;SDS011;62291;47.554;8.504;2023-11-19T05:47:37;6.22;;;4.60;;
73938;SDS011;62291;47.554;8.504;2023-11-19T05:50:02;4.85;;;4.10;;
73938;SDS011;62291;47.554;8.504;2023-11-19T05:52:30;5.47;;;3.78;;
73938;SDS011;62291;47.554;8.504;2023-11-19T05:54:59;4.53;;;3.63;;
73938;SDS011;62291;47.554;8.504;2023-11-19T05:57:29;4.83;;;3.17;;
73938;SDS011;62291;47.554;8.504;2023-11-19T05:59:55;3.78;;;3.30;;
73938;SDS011;62291;47.554;8.504;2023-11-19T06:02:20;6.05;;;3.42;;
73938;SDS011;62291;47.554;8.504;2023-11-19T06:04:46;5.13;;;3.55;;
73938;SDS011;62291;47.554;8.504;2023-11-19T06:07:13;6.25;;;3.40;;
73938;SDS011;62291;47.554;8.504;2023-11-19T06:09:40;4.00;;;2.92;;
73938;SDS011;62291;47.554;8.504;2023-11-19T06:12:06;4.35;;;3.17;;
73938;SDS011;62291;47.554;8.504;2023-11-19T06:14:32;3.22;;;2.50;;
73938;SDS011;62291;47.554;8.504;2023-11-19T06:16:58;4.25;;;2.40;;
73938;SDS011;62291;47.554;8.504;2023-11-19T06:19:24;3.22;;;2.65;;
73938;SDS011;62291;47.554;8.504;2023-11-19T06:21:50;3.60;;;2.47;;
73938;SDS011;62291;47.554;8.504;2023-11-19T06:24:16;3.42;;;2.40;;
73938;SDS011;62291;47.554;8.504;2023-11-19T06:26:42;3.47;;;2.70;;
73938;SDS011;62291;47.554;8.504;2023-11-19T06:29:08;3.25;;;2.90;;
73938;SDS011;62291;47.554;8.504;2023-11-19T06:31:33;3.22;;;2.25;;
73938;SDS011;62291;47.554;8.504;2023-11-19T06:33:59;6.20;;;2.42;;
73938;SDS011;62291;47.554;8.504;2023-11-19T06:36:25;3.33;;;2.10;;
73938;SDS011;62291;47.554;8.504;2023-11-19T06:38:51;4.28;;;2.10;;
73938;SDS011;62291;47.554;8.504;2023-11-19T06:41:17;3.08;;;2.08;;
73938;SDS011;62291;47.554;8.504;2023-11-19T06:43:43;3.03;;;1.85;;
73938;SDS011;62291;47.554;8.504;2023-11-19T06:46:18;3.28;;;2.10;;
73938;SDS011;62291;47.554;8.504;2023-11-19T06:48:44;5.03;;;2.08;;
73938;SDS011;62291;47.554;8.504;2023-11-19T06:51:13;2.33;;;1.90;;
73938;SDS011;62291;47.554;8.504;2023-11-19T06:53:39;2.70;;;1.90;;
73938;SDS011;62291;47.554;8.504;2023-11-19T06:56:06;2.63;;;1.88;;
73938;SDS011;62291;47.554;8.504;2023-11-19T06:58:42;5.07;;;1.88;;
73938;SDS011;62291;47.554;8.504;2023-11-19T07:01:08;3.05;;;1.75;;
73938;SDS011;62291;47.554;8.504;2023-11-19T07:03:34;2.03;;;1.67;;
73938;SDS011;62291;47.554;8.504;2023-11-19T07:06:00;2.40;;;1.70;;
73938;SDS011;62291;47.554;8.504;2023-11-19T07:08:26;3.70;;;2.08;;
73938;SDS011;62291;47.554;8.504;2023-11-19T07:10:52;3.13;;;1.88;;
73938;SDS011;62291;47.554;8.504;2023-11-19T07:13:18;2.33;;;1.50;;
73938;SDS011;62291;47.554;8.504;2023-11-19T07:15:44;2.70;;;1.70;;
73938;SDS011;62291;47.554;8.504;2023-11-19T07:18:10;5.13;;;1.65;;
73938;SDS011;62291;47.554;8.504;2023-11-19T07:20:36;2.78;;;1.60;;
73938;SDS011;62291;47.554;8.504;2023-11-19T07:23:03;2.40;;;1.55;;
73938;SDS011;62291;47.554;8.504;2023-11-19T07:25:29;2.97;;;1.52;;
73938;SDS011;62291;47.554;8.504;2023-11-19T07:27:55;2.72;;;1.52;;
73938;SDS011;62291;47.554;8.504;2023-11-19T07:30:21;1.83;;;1.20;;
73938;SDS011;62291;47.554;8.504;2023-11-19T07:32:47;2.50;;;1.20;;
73938;SDS011;62291;47.554;8.504;2023-11-19T07:35:13;2.03;;;1.20;;
73938;SDS011;62291;47.554;8.504;2023-11-19T07:37:40;1.83;;;1.00;;
73938;SDS011;62291;47.554;8.504;2023-11-19T07:40:07;2.70;;;1.00;;
73938;SDS011;62291;47.554;8.504;2023-11-19T07:42:33;1.92;;;0.90;;
73938;SDS011;62291;47.554;8.504;2023-11-19T07:44:59;1.73;;;1.17;;
73938;SDS011;62291;47.554;8.504;2023-11-19T07:47:25;2.53;;;0.90;;
73938;SDS011;62291;47.554;8.504;2023-11-19T07:49:50;2.85;;;0.80;;
73938;SDS011;62291;47.554;8.504;2023-11-19T07:52:16;1.45;;;0.93;;
73938;SDS011;62291;47.554;8.504;2023-11-19T07:54:42;1.48;;;0.80;;
73938;SDS011;62291;47.554;8.504;2023-11-19T07:57:08;2.25;;;0.90;;
73938;SDS011;62291;47.554;8.504;2023-11-19T07:59:34;1.80;;;0.65;;
73938;SDS011;62291;47.554;8.504;2023-11-19T08:01:59;2.75;;;1.35;;
73938;SDS011;62291;47.554;8.504;2023-11-19T08:04:25;4.00;;;0.75;;
73938;SDS011;62291;47.554;8.504;2023-11-19T08:06:50;0.95;;;0.70;;
73938;SDS011;62291;47.554;8.504;2023-11-19T08:09:16;1.00;;;0.60;;
73938;SDS011;62291;47.554;8.504;2023-11-19T08:11:43;1.55;;;0.80;;
73938;SDS011;62291;47.554;8.504;2023-11-19T08:14:08;1.42;;;0.90;;
73938;SDS011;62291;47.554;8.504;2023-11-19T08:16:34;1.08;;;0.70;;
73938;SDS011;62291;47.554;8.504;2023-11-19T08:19:01;1.38;;;0.68;;
73938;SDS011;62291;47.554;8.504;2023-11-19T08:21:28;1.02;;;0.60;;
73938;SDS011;62291;47.554;8.504;2023-11-19T08:23:54;1.40;;;0.80;;
73938;SDS011;62291;47.554;8.504;2023-11-19T08:26:19;2.13;;;1.02;;
73938;SDS011;62291;47.554;8.504;2023-11-19T08:28:45;1.55;;;0.80;;
73938;SDS011;62291;47.554;8.504;2023-11-19T08:31:11;1.25;;;0.77;;
73938;SDS011;62291;47.554;8.504;2023-11-19T08:33:37;1.70;;;0.77;;
73938;SDS011;62291;47.554;8.504;2023-11-19T08:36:03;1.15;;;0.90;;
73938;SDS011;62291;47.554;8.504;2023-11-19T08:38:29;1.75;;;0.90;;
73938;SDS011;62291;47.554;8.504;2023-11-19T08:40:55;1.33;;;0.90;;
73938;SDS011;62291;47.554;8.504;2023-11-19T08:43:25;1.55;;;0.90;;
73938;SDS011;62291;47.554;8.504;2023-11-19T08:45:51;1.13;;;0.65;;
73938;SDS011;62291;47.554;8.504;2023-11-19T08:48:17;1.48;;;0.88;;
73938;SDS011;62291;47.554;8.504;2023-11-19T08:50:43;3.17;;;0.70;;
73938;SDS011;62291;47.554;8.504;2023-11-19T08:53:08;1.92;;;0.70;;
73938;SDS011;62291;47.554;8.504;2023-11-19T08:55:34;3.42;;;1.00;;
73938;SDS011;62291;47.554;8.504;2023-11-19T08:58:00;1.33;;;0.73;;
73938;SDS011;62291;47.554;8.504;2023-11-19T09:00:27;1.75;;;0.70;;
73938;SDS011;62291;47.554;8.504;2023-11-19T09:02:53;1.38;;;0.80;;
73938;SDS011;62291;47.554;8.504;2023-11-19T09:05:18;3.08;;;1.02;;
73938;SDS011;62291;47.554;8.504;2023-11-19T09:07:44;1.45;;;0.70;;
73938;SDS011;62291;47.554;8.504;2023-11-19T09:10:13;2.60;;;0.80;;
73938;SDS011;62291;47.554;8.504;2023-11-19T09:12:38;2.67;;;0.65;;
73938;SDS011;62291;47.554;8.504;2023-11-19T09:15:04;1.75;;;0.88;;
73938;SDS011;62291;47.554;8.504;2023-11-19T09:17:31;2.17;;;0.80;;
73938;SDS011;62291;47.554;8.504;2023-11-19T09:19:57;1.33;;;0.70;;
73938;SDS011;62291;47.554;8.504;2023-11-19T09:22:22;2.92;;;0.80;;
73938;SDS011;62291;47.554;8.504;2023-11-19T09:24:48;1.25;;;0.80;;
73938;SDS011;62291;47.554;8.504;2023-11-19T09:27:14;2.15;;;0.93;;
73938;SDS011;62291;47.554;8.504;2023-11-19T09:29:40;1.85;;;0.70;;
73938;SDS011;62291;47.554;8.504;2023-11-19T09:32:08;1.85;;;0.82;;
73938;SDS011;62291;47.554;8.504;2023-11-19T09:34:33;1.85;;;1.02;;
73938;SDS011;62291;47.554;8.504;2023-11-19T09:36:59;1.40;;;0.88;;
73938;SDS011;62291;47.554;8.504;2023-11-19T09:39:28;2.33;;;0.90;;
73938;SDS011;62291;47.554;8.504;2023-11-19T09:41:54;1.13;;;0.70;;
73938;SDS011;62291;47.554;8.504;2023-11-19T09:44:20;3.67;;;0.93;;
73938;SDS011;62291;47.554;8.504;2023-11-19T09:46:46;1.65;;;0.90;;
73938;SDS011;62291;47.554;8.504;2023-11-19T09:49:14;1.92;;;0.60;;
73938;SDS011;62291;47.554;8.504;2023-11-19T09:51:43;0.95;;;0.70;;
73938;SDS011;62291;47.554;8.504;2023-11-19T09:54:09;1.27;;;0.85;;
73938;SDS011;62291;47.554;8.504;2023-11-19T09:56:37;2.42;;;0.75;;
73938;SDS011;62291;47.554;8.504;2023-11-19T09:59:05;1.80;;;0.90;;
73938;SDS011;62291;47.554;8.504;2023-11-19T10:01:30;0.98;;;0.60;;
73938;SDS011;62291;47.554;8.504;2023-11-19T10:03:57;3.70;;;1.20;;
73938;SDS011;62291;47.554;8.504;2023-11-19T10:06:24;2.08;;;0.77;;
73938;SDS011;62291;47.554;8.504;2023-11-19T10:08:51;1.27;;;0.88;;
73938;SDS011;62291;47.554;8.504;2023-11-19T10:11:18;1.65;;;0.70;;
73938;SDS011;62291;47.554;8.504;2023-11-19T10:13:43;3.92;;;0.80;;
73938;SDS011;62291;47.554;8.504;2023-11-19T10:16:12;3.90;;;0.70;;
73938;SDS011;62291;47.554;8.504;2023-11-19T10:18:48;1.65;;;0.80;;
73938;SDS011;62291;47.554;8.504;2023-11-19T10:21:18;1.25;;;0.70;;
73938;SDS011;62291;47.554;8.504;2023-11-19T10:23:56;1.65;;;0.75;;
73938;SDS011;62291;47.554;8.504;2023-11-19T10:26:25;1.38;;;0.85;;
73938;SDS011;62291;47.554;8.504;2023-11-19T10:28:52;3.65;;;1.15;;
73938;SDS011;62291;47.554;8.504;2023-11-19T10:31:18;1.20;;;0.80;;
73938;SDS011;62291;47.554;8.504;2023-11-19T10:33:49;1.50;;;0.80;;
73938;SDS011;62291;47.554;8.504;2023-11-19T10:36:16;1.60;;;0.90;;
73938;SDS011;62291;47.554;8.504;2023-11-19T10:38:52;3.97;;;0.98;;
73938;SDS011;62291;47.554;8.504;2023-11-19T10:41:29;1.50;;;0.95;;
73938;SDS011;62291;47.554;8.504;2023-11-19T10:43:56;1.75;;;1.20;;
73938;SDS011;62291;47.554;8.504;2023-11-19T10:46:22;1.70;;;0.90;;
73938;SDS011;62291;47.554;8.504;2023-11-19T10:49:01;1.38;;;0.85;;
73938;SDS011;62291;47.554;8.504;2023-11-19T10:51:26;1.10;;;0.70;;
73938;SDS011;62291;47.554;8.504;2023-11-19T10:53:54;1.85;;;0.85;;
73938;SDS011;62291;47.554;8.504;2023-11-19T10:56:29;0.95;;;0.60;;
73938;SDS011;62291;47.554;8.504;2023-11-19T10:58:55;1.60;;;0.70;;
73938;SDS011;62291;47.554;8.504;2023-11-19T11:01:24;3.60;;;0.80;;
73938;SDS011;62291;47.554;8.504;2023-11-19T11:03:59;1.10;;;0.70;;
73938;SDS011;62291;47.554;8.504;2023-11-19T11:06:27;2.47;;;0.98;;
73938;SDS011;62291;47.554;8.504;2023-11-19T11:08:54;1.33;;;0.90;;
73938;SDS011;62291;47.554;8.504;2023-11-19T11:11:20;1.83;;;0.70;;
73938;SDS011;62291;47.554;8.504;2023-11-19T11:13:49;0.98;;;0.63;;
73938;SDS011;62291;47.554;8.504;2023-11-19T11:16:18;1.25;;;0.50;;
73938;SDS011;62291;47.554;8.504;2023-11-19T11:18:48;1.27;;;0.70;;
73938;SDS011;62291;47.554;8.504;2023-11-19T11:21:15;1.42;;;0.50;;
73938;SDS011;62291;47.554;8.504;2023-11-19T11:37:10;0.65;;;0.40;;
73938;SDS011;62291;47.554;8.504;2023-11-19T11:39:53;0.70;;;0.50;;
73938;SDS011;62291;47.554;8.504;2023-11-19T11:50:13;0.77;;;0.50;;
73938;SDS011;62291;47.554;8.504;2023-11-19T11:55:28;1.50;;;0.63;;
73938;SDS011;62291;47.554;8.504;2023-11-19T11:58:01;1.00;;;0.60;;
73938;SDS011;62291;47.554;8.504;2023-11-19T12:00:31;1.30;;;0.68;;
73938;SDS011;62291;47.554;8.504;2023-11-19T12:03:01;1.55;;;0.70;;
73938;SDS011;62291;47.554;8.504;2023-11-19T12:05:27;2.30;;;0.60;;
73938;SDS011;62291;47.554;8.504;2023-11-19T12:07:59;2.65;;;0.60;;
73938;SDS011;62291;47.554;8.504;2023-11-19T12:10:31;1.30;;;0.63;;
73938;SDS011;62291;47.554;8.504;2023-11-19T12:13:02;1.77;;;0.63;;
73938;SDS011;62291;47.554;8.504;2023-11-19T12:15:33;1.65;;;0.65;;
73938;SDS011;62291;47.554;8.504;2023-11-19T12:18:19;1.77;;;0.68;;
73938;SDS011;62291;47.554;8.504;2023-11-19T12:20:45;2.17;;;0.70;;
73938;SDS011;62291;47.554;8.504;2023-11-19T12:23:10;1.45;;;0.70;;
73938;SDS011;62291;47.554;8.504;2023-11-19T12:25:36;2.10;;;0.80;;
73938;SDS011;62291;47.554;8.504;2023-11-19T12:28:02;0.80;;;0.47;;
73938;SDS011;62291;47.554;8.504;2023-11-19T12:30:29;1.55;;;0.60;;
73938;SDS011;62291;47.554;8.504;2023-11-19T12:32:55;1.80;;;0.80;;
73938;SDS011;62291;47.554;8.504;2023-11-19T12:35:21;1.45;;;0.50;;
73938;SDS011;62291;47.554;8.504;2023-11-19T12:37:49;1.73;;;0.65;;
73938;SDS011;62291;47.554;8.504;2023-11-19T12:40:16;1.83;;;0.70;;
73938;SDS011;62291;47.554;8.504;2023-11-19T12:42:44;2.53;;;0.60;;
73938;SDS011;62291;47.554;8.504;2023-11-19T12:45:11;1.13;;;0.68;;
73938;SDS011;62291;47.554;8.504;2023-11-19T12:47:38;1.48;;;0.70;;
73938;SDS011;62291;47.554;8.504;2023-11-19T12:50:05;1.13;;;0.60;;
73938;SDS011;62291;47.554;8.504;2023-11-19T12:52:33;1.35;;;0.80;;
73938;SDS011;62291;47.554;8.504;2023-11-19T12:55:03;1.17;;;0.70;;
73938;SDS011;62291;47.554;8.504;2023-11-19T12:57:49;2.90;;;0.70;;
73938;SDS011;62291;47.554;8.504;2023-11-19T13:00:18;5.10;;;0.90;;
73938;SDS011;62291;47.554;8.504;2023-11-19T13:02:48;1.10;;;0.65;;
73938;SDS011;62291;47.554;8.504;2023-11-19T13:05:22;3.42;;;0.65;;
73938;SDS011;62291;47.554;8.504;2023-11-19T13:11:07;3.42;;;0.90;;
73938;SDS011;62291;47.554;8.504;2023-11-19T13:13:26;2.40;;;0.80;;
73938;SDS011;62291;47.554;8.504;2023-11-19T13:15:51;0.73;;;0.50;;
73938;SDS011;62291;47.554;8.504;2023-11-19T13:18:17;0.82;;;0.70;;
73938;SDS011;62291;47.554;8.504;2023-11-19T13:20:43;1.45;;;0.70;;
73938;SDS011;62291;47.554;8.504;2023-11-19T13:23:09;1.00;;;0.60;;
73938;SDS011;62291;47.554;8.504;2023-11-19T13:25:35;2.10;;;1.00;;
73938;SDS011;62291;47.554;8.504;2023-11-19T13:28:01;2.78;;;0.82;;
73938;SDS011;62291;47.554;8.504;2023-11-19T13:30:27;3.13;;;0.70;;
73938;SDS011;62291;47.554;8.504;2023-11-19T13:32:54;1.80;;;0.60;;
73938;SDS011;62291;47.554;8.504;2023-11-19T13:35:21;1.38;;;0.60;;
73938;SDS011;62291;47.554;8.504;2023-11-19T13:37:50;1.73;;;0.85;;
73938;SDS011;62291;47.554;8.504;2023-11-19T13:40:16;0.80;;;0.60;;
73938;SDS011;62291;47.554;8.504;2023-11-19T13:42:42;3.53;;;0.73;;
73938;SDS011;62291;47.554;8.504;2023-11-19T13:45:09;1.98;;;0.68;;
73938;SDS011;62291;47.554;8.504;2023-11-19T13:47:37;1.40;;;0.70;;
73938;SDS011;62291;47.554;8.504;2023-11-19T13:50:06;1.50;;;0.80;;
73938;SDS011;62291;47.554;8.504;2023-11-19T13:52:34;0.90;;;0.50;;
73938;SDS011;62291;47.554;8.504;2023-11-19T13:55:00;0.80;;;0.70;;
73938;SDS011;62291;47.554;8.504;2023-11-19T13:57:25;0.85;;;0.70;;
73938;SDS011;62291;47.554;8.504;2023-11-19T13:59:51;1.00;;;0.60;;
73938;SDS011;62291;47.554;8.504;2023-11-19T14:02:17;1.10;;;0.70;;
73938;SDS011;62291;47.554;8.504;2023-11-19T14:04:42;2.10;;;0.65;;
73938;SDS011;62291;47.554;8.504;2023-11-19T14:07:08;14.30;;;11.32;;
73938;SDS011;62291;47.554;8.504;2023-11-19T14:09:34;1.40;;;1.05;;
73938;SDS011;62291;47.554;8.504;2023-11-19T14:11:59;2.13;;;1.27;;
73938;SDS011;62291;47.554;8.504;2023-11-19T14:14:25;3.65;;;2.92;;
73938;SDS011;62291;47.554;8.504;2023-11-19T14:16:50;1.20;;;0.70;;
73938;SDS011;62291;47.554;8.504;2023-11-19T14:19:17;1.42;;;0.73;;
73938;SDS011;62291;47.554;8.504;2023-11-19T14:21:42;1.75;;;0.60;;
73938;SDS011;62291;47.554;8.504;2023-11-19T14:24:09;1.25;;;0.70;;
73938;SDS011;62291;47.554;8.504;2023-11-19T14:26:35;1.77;;;0.98;;
73938;SDS011;62291;47.554;8.504;2023-11-19T14:29:01;3.28;;;0.73;;
73938;SDS011;62291;47.554;8.504;2023-11-19T14:31:27;2.80;;;1.13;;
73938;SDS011;62291;47.554;8.504;2023-11-19T14:33:54;2.75;;;2.13;;
73938;SDS011;62291;47.554;8.504;2023-11-19T14:36:20;3.17;;;1.48;;
73938;SDS011;62291;47.554;8.504;2023-11-19T14:38:46;1.73;;;0.90;;
73938;SDS011;62291;47.554;8.504;2023-11-19T14:41:12;1.13;;;0.60;;
73938;SDS011;62291;47.554;8.504;2023-11-19T14:43:38;3.25;;;1.42;;
73938;SDS011;62291;47.554;8.504;2023-11-19T14:46:04;1.80;;;0.80;;
73938;SDS011;62291;47.554;8.504;2023-11-19T14:48:31;4.28;;;1.27;;
73938;SDS011;62291;47.554;8.504;2023-11-19T14:50:57;1.20;;;0.60;;
73938;SDS011;62291;47.554;8.504;2023-11-19T14:53:23;1.92;;;0.70;;
73938;SDS011;62291;47.554;8.504;2023-11-19T14:55:49;1.23;;;0.60;;
73938;SDS011;62291;47.554;8.504;2023-11-19T14:58:14;1.58;;;0.65;;
73938;SDS011;62291;47.554;8.504;2023-11-19T15:00:40;1.35;;;0.60;;
73938;SDS011;62291;47.554;8.504;2023-11-19T15:03:05;1.70;;;0.60;;
73938;SDS011;62291;47.554;8.504;2023-11-19T15:05:31;2.95;;;0.70;;
73938;SDS011;62291;47.554;8.504;2023-11-19T15:07:57;2.53;;;0.75;;
73938;SDS011;62291;47.554;8.504;2023-11-19T15:10:22;1.73;;;0.70;;
73938;SDS011;62291;47.554;8.504;2023-11-19T15:12:49;2.13;;;0.60;;
73938;SDS011;62291;47.554;8.504;2023-11-19T15:15:15;3.10;;;0.60;;
73938;SDS011;62291;47.554;8.504;2023-11-19T15:17:41;1.95;;;0.80;;
73938;SDS011;62291;47.554;8.504;2023-11-19T15:20:07;4.50;;;0.70;;